Allport, Arkansas
Current Conditions -  °F | °C
As of 2:15 PM on Thursday 29 Jan 2015 (Local Time) from KSGT Reporting Station
Clear Clear  
Wind Chill: 66°   Ceiling: Unl
Heat Index: 66°   Visibility: 10mi
Dew Point: 39°   Wind: 17mph
Humidity: 37%   Direction: 330°NNW
Pressure: 30.16"   Gusts: NA
Location:  34.5894°N, 91.9107°W
Report Text: KSGT 292015Z AUTO 33015KT 10SM CLR 19/04 A3016 RMK AO1
Loading
Personal Weather Stations






























Interactive Weather Map New forecast layout! Learn more

10-Day Weather Forecast

Advertisements
Track Severe Weather on mobile